createdAt,value
2023-05-14T00:01:28.566Z,6.78
2023-05-14T00:03:55.248Z,6.70
2023-05-14T00:06:21.896Z,6.52
2023-05-14T00:08:48.425Z,6.82
2023-05-14T00:11:16.380Z,6.92
2023-05-14T00:13:42.985Z,6.86
2023-05-14T00:16:09.643Z,6.76
2023-05-14T00:18:36.375Z,6.82
2023-05-14T00:21:03.342Z,6.81
2023-05-14T00:23:29.974Z,6.79
2023-05-14T00:25:56.669Z,6.69
2023-05-14T00:28:23.332Z,6.51
2023-05-14T00:30:51.106Z,6.37
2023-05-14T00:33:17.837Z,6.20
2023-05-14T00:35:44.425Z,6.23
2023-05-14T00:38:16.864Z,6.08
2023-05-14T00:40:45.835Z,6.08
2023-05-14T00:43:12.407Z,6.06
2023-05-14T00:45:39.350Z,5.96
2023-05-14T00:48:06.151Z,5.82
2023-05-14T00:50:34.563Z,5.80
2023-05-14T00:53:01.504Z,5.70
2023-05-14T00:55:32.585Z,5.73
2023-05-14T00:57:59.899Z,5.63
2023-05-14T01:00:26.715Z,5.57
2023-05-14T01:02:53.397Z,5.50
2023-05-14T01:05:20.189Z,5.41
2023-05-14T01:08:01.458Z,5.37
2023-05-14T01:10:41.624Z,5.28
2023-05-14T01:13:31.695Z,5.17
2023-05-14T01:15:59.854Z,5.08
2023-05-14T01:18:28.426Z,5.02
2023-05-14T01:20:55.149Z,4.89
2023-05-14T01:23:21.709Z,4.84
2023-05-14T01:25:48.378Z,4.78
2023-05-14T01:28:20.323Z,4.89
2023-05-14T01:30:58.525Z,4.83
2023-05-14T01:33:27.590Z,4.69
2023-05-14T01:35:55.352Z,4.88
2023-05-14T01:38:23.508Z,5.10
2023-05-14T01:40:50.924Z,5.04
2023-05-14T01:43:18.338Z,4.91
2023-05-14T01:45:45.051Z,4.79
2023-05-14T01:48:11.961Z,4.72
2023-05-14T01:50:38.650Z,4.76
2023-05-14T01:53:05.186Z,4.68
2023-05-14T01:55:31.808Z,4.60
2023-05-14T01:57:58.445Z,4.53
2023-05-14T02:00:26.270Z,4.41
2023-05-14T02:02:53.359Z,4.54
2023-05-14T02:05:20.291Z,4.51
2023-05-14T02:07:46.949Z,4.50
2023-05-14T02:10:13.750Z,4.52
2023-05-14T02:12:40.406Z,4.51
2023-05-14T02:15:08.943Z,4.34
2023-05-14T02:17:35.698Z,4.39
2023-05-14T02:20:02.434Z,4.37
2023-05-14T02:22:29.107Z,4.34
2023-05-14T02:24:56.150Z,4.26
2023-05-14T02:27:22.782Z,4.23
2023-05-14T02:29:49.388Z,4.07
2023-05-14T02:32:16.062Z,4.08
2023-05-14T02:34:42.743Z,3.81
2023-05-14T02:37:09.435Z,3.93
2023-05-14T02:39:36.042Z,3.96
2023-05-14T02:42:02.738Z,3.95
2023-05-14T02:44:31.760Z,3.98
2023-05-14T02:46:58.632Z,3.92
2023-05-14T02:49:25.320Z,3.88
2023-05-14T02:51:51.934Z,3.91
2023-05-14T02:54:18.626Z,3.84
2023-05-14T02:56:45.289Z,3.87
2023-05-14T02:59:11.976Z,4.07
2023-05-14T03:01:39.037Z,4.11
2023-05-14T03:04:06.166Z,4.13
2023-05-14T03:06:32.722Z,4.08
2023-05-14T03:08:59.284Z,4.04
2023-05-14T03:11:26.065Z,3.97
2023-05-14T03:13:52.777Z,3.90
2023-05-14T03:16:19.454Z,3.94
2023-05-14T03:18:46.157Z,4.03
2023-05-14T03:21:13.035Z,4.15
2023-05-14T03:23:39.811Z,4.36
2023-05-14T03:26:06.525Z,4.33
2023-05-14T03:28:33.291Z,4.45
2023-05-14T03:31:00.173Z,4.14
2023-05-14T03:33:26.995Z,4.47
2023-05-14T03:35:53.713Z,4.44
2023-05-14T03:38:20.432Z,4.39
2023-05-14T03:40:46.968Z,4.29
2023-05-14T03:43:13.624Z,4.21
2023-05-14T03:45:40.487Z,4.29
2023-05-14T03:48:07.284Z,4.30
2023-05-14T03:50:34.011Z,4.30
2023-05-14T03:53:00.711Z,4.32
2023-05-14T03:55:27.497Z,4.31
2023-05-14T03:57:54.197Z,4.28
2023-05-14T04:00:21.430Z,4.27
2023-05-14T04:02:48.408Z,4.24
2023-05-14T04:05:15.040Z,4.24
2023-05-14T04:07:41.599Z,4.29
2023-05-14T04:10:08.768Z,4.24
2023-05-14T04:12:35.403Z,4.34
2023-05-14T04:15:02.036Z,4.37
2023-05-14T04:17:28.688Z,4.42
2023-05-14T04:19:55.478Z,4.53
2023-05-14T04:22:22.161Z,4.59
2023-05-14T04:24:48.732Z,4.68
2023-05-14T04:27:21.345Z,4.75
2023-05-14T04:29:49.348Z,4.79
2023-05-14T04:32:16.611Z,4.77
2023-05-14T04:34:43.719Z,4.88
2023-05-14T04:37:10.424Z,4.94
2023-05-14T04:39:38.418Z,4.95
2023-05-14T04:42:06.814Z,5.04
2023-05-14T04:44:35.198Z,5.11
2023-05-14T04:47:02.733Z,5.24
2023-05-14T04:49:29.806Z,5.29
2023-05-14T04:51:57.472Z,5.39
2023-05-14T04:54:24.156Z,5.53
2023-05-14T04:56:51.890Z,5.64
2023-05-14T04:59:18.485Z,5.74
2023-05-14T05:01:47.432Z,5.95
2023-05-14T05:04:14.246Z,6.13
2023-05-14T05:06:40.823Z,6.36
2023-05-14T05:09:08.745Z,6.60
2023-05-14T05:11:35.388Z,6.86
2023-05-14T05:14:01.975Z,7.06
2023-05-14T05:16:28.709Z,7.35
2023-05-14T05:18:56.437Z,7.58
2023-05-14T05:21:23.372Z,7.75
2023-05-14T05:23:49.993Z,8.04
2023-05-14T05:26:16.783Z,8.16
2023-05-14T05:28:43.494Z,8.42
2023-05-14T05:31:10.382Z,8.58
2023-05-14T05:33:37.107Z,8.65
2023-05-14T05:36:04.042Z,9.11
2023-05-14T05:38:30.701Z,9.48
2023-05-14T05:40:57.431Z,10.13
2023-05-14T05:43:24.210Z,11.19
2023-05-14T05:45:50.861Z,11.77
2023-05-14T05:48:17.483Z,12.08
2023-05-14T05:50:47.566Z,12.34
2023-05-14T05:53:14.298Z,12.65
2023-05-14T05:55:40.852Z,13.09
2023-05-14T05:58:07.598Z,13.51
2023-05-14T06:00:34.508Z,13.80
2023-05-14T06:03:01.509Z,14.76
2023-05-14T06:05:28.407Z,15.58
2023-05-14T06:07:55.012Z,16.12
2023-05-14T06:10:22.881Z,16.74
2023-05-14T06:12:49.952Z,17.09
2023-05-14T06:15:16.555Z,16.65
2023-05-14T06:17:44.995Z,17.35
2023-05-14T06:20:11.955Z,17.84
2023-05-14T06:22:38.842Z,18.38
2023-05-14T06:25:08.721Z,18.91
2023-05-14T06:27:35.347Z,18.42
2023-05-14T06:30:02.134Z,18.57
2023-05-14T06:32:28.772Z,18.56
2023-05-14T06:34:55.386Z,18.75
2023-05-14T06:37:22.117Z,19.26
2023-05-14T06:39:50.515Z,19.44
2023-05-14T06:42:17.578Z,19.68
2023-05-14T06:44:45.055Z,19.90
2023-05-14T06:47:11.802Z,19.85
2023-05-14T06:49:39.376Z,20.12
2023-05-14T06:52:06.552Z,20.27
2023-05-14T06:54:33.523Z,20.39
2023-05-14T06:57:00.329Z,20.84
2023-05-14T06:59:27.185Z,21.23
2023-05-14T07:01:53.926Z,21.37
2023-05-14T07:04:21.653Z,21.83
2023-05-14T07:06:48.303Z,21.68
2023-05-14T07:09:15.887Z,21.66
2023-05-14T07:11:42.563Z,21.75
2023-05-14T07:14:09.146Z,21.78
2023-05-14T07:16:36.192Z,21.47
2023-05-14T07:19:02.899Z,21.38
2023-05-14T07:21:29.644Z,21.45
2023-05-14T07:23:56.237Z,21.43
2023-05-14T07:26:24.569Z,21.42
2023-05-14T07:28:51.311Z,21.62
2023-05-14T07:31:18.046Z,21.78
2023-05-14T07:33:44.957Z,22.22
2023-05-14T07:36:11.641Z,22.09
2023-05-14T07:38:38.380Z,22.48
2023-05-14T07:41:05.365Z,22.11
2023-05-14T07:43:33.947Z,22.10
2023-05-14T07:46:01.852Z,22.38
2023-05-14T07:48:29.122Z,21.94
2023-05-14T07:50:56.014Z,22.42
2023-05-14T07:53:24.974Z,21.62
2023-05-14T07:55:52.136Z,21.96
2023-05-14T07:58:18.827Z,21.87
2023-05-14T08:00:45.440Z,21.80
2023-05-14T08:03:12.227Z,21.99
2023-05-14T08:05:39.060Z,21.83
2023-05-14T08:08:07.187Z,20.90
2023-05-14T08:10:34.042Z,21.08
2023-05-14T08:13:00.691Z,21.76
2023-05-14T08:15:28.935Z,22.10
2023-05-14T08:17:57.030Z,21.82
2023-05-14T08:20:25.423Z,22.48
2023-05-14T08:22:52.350Z,22.81
2023-05-14T08:25:19.343Z,22.40
2023-05-14T08:27:46.980Z,22.94
2023-05-14T08:30:15.362Z,23.34
2023-05-14T08:32:42.571Z,22.91
2023-05-14T08:35:09.376Z,23.05
2023-05-14T08:37:36.720Z,23.02
2023-05-14T08:40:03.783Z,23.45
2023-05-14T08:42:31.424Z,23.20
2023-05-14T08:45:02.793Z,23.55
2023-05-14T08:47:30.930Z,22.93
2023-05-14T08:50:07.297Z,22.75
2023-05-14T08:52:35.134Z,22.90
2023-05-14T08:55:05.404Z,23.63
2023-05-14T08:57:33.487Z,23.99
2023-05-14T09:00:08.595Z,24.27
2023-05-14T09:02:36.995Z,24.33
2023-05-14T09:05:04.641Z,24.59
2023-05-14T09:07:32.241Z,24.54
2023-05-14T09:10:00.074Z,24.29
2023-05-14T09:12:28.416Z,23.95
2023-05-14T09:14:55.163Z,23.87
2023-05-14T09:17:22.203Z,24.11
2023-05-14T09:19:53.306Z,24.34
2023-05-14T09:22:20.914Z,24.49
2023-05-14T09:25:02.298Z,24.46
2023-05-14T09:27:30.162Z,24.23
2023-05-14T09:30:18.448Z,24.12
2023-05-14T09:32:46.109Z,23.57
2023-05-14T09:35:17.986Z,22.56
2023-05-14T09:37:51.124Z,22.53
2023-05-14T09:40:19.771Z,22.50
2023-05-14T09:42:48.641Z,23.05
2023-05-14T09:45:17.493Z,23.46
2023-05-14T09:47:45.330Z,23.25
2023-05-14T09:50:12.473Z,23.45
2023-05-14T09:52:39.664Z,23.08
2023-05-14T09:55:09.101Z,22.33
2023-05-14T09:57:35.853Z,22.07
2023-05-14T10:00:03.998Z,22.44
2023-05-14T10:02:38.174Z,22.64
2023-05-14T10:05:06.909Z,23.00
2023-05-14T10:07:43.175Z,22.92
2023-05-14T10:10:16.736Z,23.67
2023-05-14T10:12:48.745Z,24.42
2023-05-14T10:15:22.669Z,24.01
2023-05-14T10:17:54.942Z,23.70
2023-05-14T10:20:26.571Z,23.28
2023-05-14T10:22:53.449Z,23.20
2023-05-14T10:25:22.105Z,23.35
2023-05-14T10:27:49.149Z,23.69
2023-05-14T10:30:15.865Z,24.34
2023-05-14T10:32:46.610Z,24.53
2023-05-14T10:35:18.472Z,24.08
2023-05-14T10:37:46.386Z,23.42
2023-05-14T10:40:18.528Z,23.18
2023-05-14T10:42:48.740Z,23.55
2023-05-14T10:45:15.970Z,23.73
2023-05-14T10:47:46.998Z,24.24
2023-05-14T10:50:17.700Z,24.02
2023-05-14T10:52:46.303Z,24.36
2023-05-14T10:55:16.829Z,24.41
2023-05-14T10:57:46.852Z,24.15
2023-05-14T11:00:15.101Z,23.77
2023-05-14T11:02:45.170Z,23.80
2023-05-14T11:05:17.975Z,23.87
2023-05-14T11:07:50.026Z,24.03
2023-05-14T11:10:19.196Z,24.18
2023-05-14T11:12:50.131Z,24.08
2023-05-14T11:15:18.950Z,24.36
2023-05-14T11:17:46.986Z,25.02
2023-05-14T11:20:16.734Z,25.64
2023-05-14T11:22:44.710Z,26.43
2023-05-14T11:25:14.583Z,25.91
2023-05-14T11:27:46.285Z,25.39
2023-05-14T11:30:17.684Z,24.82
2023-05-14T11:32:47.041Z,25.55
2023-05-14T11:35:15.715Z,24.99
2023-05-14T11:37:51.510Z,23.72
2023-05-14T11:40:18.858Z,23.37
2023-05-14T11:42:51.021Z,22.56
2023-05-14T11:45:29.945Z,22.16
2023-05-14T11:47:58.205Z,21.93
2023-05-14T11:50:25.124Z,21.72
2023-05-14T11:52:57.367Z,21.45
2023-05-14T11:55:24.130Z,21.05
2023-05-14T11:57:52.181Z,20.35
2023-05-14T12:00:22.154Z,19.67
2023-05-14T12:02:52.054Z,19.07
2023-05-14T12:05:19.084Z,18.54
2023-05-14T12:07:46.248Z,17.86
2023-05-14T12:10:13.840Z,17.52
2023-05-14T12:12:40.552Z,17.49
2023-05-14T12:15:13.707Z,17.77
2023-05-14T12:17:40.690Z,17.90
2023-05-14T12:20:11.309Z,18.12
2023-05-14T12:22:41.556Z,18.50
2023-05-14T12:25:15.699Z,19.00
2023-05-14T12:27:45.895Z,19.43
2023-05-14T12:32:47.072Z,20.22
2023-05-14T12:35:13.781Z,20.48
2023-05-14T12:37:40.771Z,21.11
2023-05-14T12:40:10.742Z,21.75
2023-05-14T12:42:37.480Z,22.54
2023-05-14T12:45:07.862Z,22.74
2023-05-14T12:47:37.028Z,22.81
2023-05-14T12:50:05.958Z,22.99
2023-05-14T12:52:39.454Z,23.15
2023-05-14T12:55:07.971Z,23.17
2023-05-14T12:57:35.916Z,23.30
2023-05-14T13:00:07.928Z,23.73
2023-05-14T13:02:42.696Z,23.93
2023-05-14T13:05:10.821Z,24.48
2023-05-14T13:07:37.558Z,24.66
2023-05-14T13:10:05.858Z,25.04
2023-05-14T13:12:33.045Z,25.15
2023-05-14T13:14:59.993Z,24.52
2023-05-14T13:17:29.272Z,24.01
2023-05-14T13:19:56.218Z,23.65
2023-05-14T13:22:23.128Z,22.79
2023-05-14T13:24:51.130Z,22.15
2023-05-14T13:27:21.684Z,21.51
2023-05-14T13:29:48.369Z,20.76
2023-05-14T13:32:15.000Z,20.07
2023-05-14T13:34:41.596Z,19.57
2023-05-14T13:37:08.177Z,19.29
2023-05-14T13:39:37.624Z,19.00
2023-05-14T13:42:04.699Z,18.74
2023-05-14T13:44:31.311Z,18.70
2023-05-14T13:46:58.030Z,18.52
2023-05-14T13:49:24.738Z,18.17
2023-05-14T13:51:51.412Z,17.93
2023-05-14T13:54:18.104Z,17.99
2023-05-14T13:56:44.708Z,18.33
2023-05-14T13:59:12.366Z,18.62
2023-05-14T14:01:39.103Z,18.75
2023-05-14T14:04:05.726Z,18.91
2023-05-14T14:06:33.590Z,18.99
2023-05-14T14:09:00.348Z,19.10
2023-05-14T14:11:27.706Z,19.23
2023-05-14T14:13:54.525Z,19.27
2023-05-14T14:16:21.405Z,19.22
2023-05-14T14:18:48.091Z,19.36
2023-05-14T14:21:18.054Z,19.42
2023-05-14T14:23:48.299Z,19.58
2023-05-14T14:26:15.075Z,19.99
2023-05-14T14:28:41.648Z,20.53
2023-05-14T14:31:08.526Z,21.25
2023-05-14T14:33:35.141Z,21.18
2023-05-14T14:36:01.786Z,21.95
2023-05-14T14:38:28.554Z,22.56
2023-05-14T14:40:55.397Z,22.41
2023-05-14T14:43:22.020Z,22.68
2023-05-14T14:45:49.169Z,23.14
2023-05-14T14:48:39.189Z,23.18
2023-05-14T14:51:07.655Z,24.01
2023-05-14T14:53:35.913Z,24.12
2023-05-14T14:56:03.431Z,23.47
2023-05-14T14:58:31.355Z,23.50
2023-05-14T15:00:58.493Z,23.14
2023-05-14T15:03:26.173Z,22.63
2023-05-14T15:05:53.856Z,22.10
2023-05-14T15:08:24.399Z,21.46
2023-05-14T15:10:51.059Z,21.24
2023-05-14T15:13:17.770Z,20.93
2023-05-14T15:15:44.602Z,20.63
2023-05-14T15:18:11.259Z,20.51
2023-05-14T15:20:38.232Z,19.92
2023-05-14T15:23:05.116Z,19.90
2023-05-14T15:25:31.750Z,20.04
2023-05-14T15:27:58.341Z,20.03
2023-05-14T15:30:24.974Z,20.23
2023-05-14T15:32:51.694Z,20.62
2023-05-14T15:35:18.692Z,20.57
2023-05-14T15:37:45.580Z,20.61
2023-05-14T15:40:12.918Z,20.41
2023-05-14T15:42:42.226Z,20.23
2023-05-14T15:45:10.563Z,20.18
2023-05-14T15:47:37.441Z,19.78
2023-05-14T15:50:04.920Z,19.64
2023-05-14T15:52:31.718Z,19.25
2023-05-14T15:54:59.612Z,19.14
2023-05-14T15:57:26.313Z,19.07
2023-05-14T15:59:53.064Z,19.04
2023-05-14T16:02:20.012Z,18.99
2023-05-14T16:04:46.628Z,19.02
2023-05-14T16:07:13.464Z,18.91
2023-05-14T16:09:40.277Z,18.84
2023-05-14T16:12:07.692Z,18.85
2023-05-14T16:14:35.364Z,18.87
2023-05-14T16:17:02.318Z,18.88
2023-05-14T16:19:29.072Z,18.65
2023-05-14T16:21:55.745Z,18.66
2023-05-14T16:24:22.453Z,18.44
2023-05-14T16:26:49.154Z,18.17
2023-05-14T16:29:15.923Z,17.81
2023-05-14T16:31:42.738Z,17.67
2023-05-14T16:34:09.459Z,17.36
2023-05-14T16:36:41.273Z,17.41
2023-05-14T16:39:11.671Z,17.37
2023-05-14T16:41:41.367Z,17.38
2023-05-14T16:44:13.776Z,17.41
2023-05-14T16:46:46.451Z,17.48
2023-05-14T16:49:16.890Z,17.39
2023-05-14T16:51:46.979Z,17.70
2023-05-14T16:54:13.654Z,17.83
2023-05-14T16:56:42.323Z,17.86
2023-05-14T16:59:10.266Z,18.03
2023-05-14T17:01:41.997Z,17.98
2023-05-14T17:04:10.197Z,18.07
2023-05-14T17:06:38.807Z,18.11
2023-05-14T17:09:14.952Z,18.21
2023-05-14T17:11:41.669Z,18.15
2023-05-14T17:14:11.294Z,18.14
2023-05-14T17:16:45.494Z,18.04
2023-05-14T17:19:13.308Z,18.04
2023-05-14T17:21:41.814Z,18.07
2023-05-14T17:24:08.684Z,18.10
2023-05-14T17:26:41.586Z,18.04
2023-05-14T17:29:10.675Z,18.10
2023-05-14T17:31:40.015Z,18.09
2023-05-14T17:34:11.424Z,17.98
2023-05-14T17:36:39.693Z,17.79
2023-05-14T17:39:06.812Z,17.52
2023-05-14T17:41:35.523Z,17.53
2023-05-14T17:44:04.865Z,17.38
2023-05-14T17:46:34.431Z,17.25
2023-05-14T17:49:01.530Z,16.92
2023-05-14T17:51:29.899Z,16.93
2023-05-14T17:54:00.688Z,16.80
2023-05-14T17:56:28.675Z,16.37
2023-05-14T17:58:55.218Z,16.54
2023-05-14T18:01:21.909Z,16.37
2023-05-14T18:03:51.016Z,16.17
2023-05-14T18:06:32.818Z,16.00
2023-05-14T18:09:03.902Z,15.84
2023-05-14T18:11:36.189Z,15.72
2023-05-14T18:14:04.140Z,15.60
2023-05-14T18:16:31.029Z,15.46
2023-05-14T18:18:57.743Z,15.40
2023-05-14T18:21:35.215Z,15.23
2023-05-14T18:24:11.428Z,15.06
2023-05-14T18:26:38.320Z,14.99
2023-05-14T18:29:07.758Z,14.88
2023-05-14T18:31:41.705Z,14.62
2023-05-14T18:34:09.412Z,14.67
2023-05-14T18:36:42.112Z,14.58
2023-05-14T18:39:10.936Z,14.52
2023-05-14T18:41:37.642Z,14.48
2023-05-14T18:44:12.434Z,14.41
2023-05-14T18:46:46.530Z,14.33
2023-05-14T18:49:20.453Z,14.28
2023-05-14T18:51:50.208Z,14.24
2023-05-14T18:54:22.229Z,14.17
2023-05-14T18:56:53.525Z,14.08
2023-05-14T18:59:30.598Z,13.89
2023-05-14T19:02:00.872Z,13.93
2023-05-14T19:04:47.882Z,13.81
2023-05-14T19:07:18.337Z,13.72
2023-05-14T19:09:45.068Z,13.80
2023-05-14T19:12:11.722Z,13.77
2023-05-14T19:14:38.286Z,13.77
2023-05-14T19:17:06.915Z,13.74
2023-05-14T19:19:33.706Z,13.72
2023-05-14T19:22:00.470Z,13.76
2023-05-14T19:24:27.141Z,13.66
2023-05-14T19:26:54.052Z,13.71
2023-05-14T19:29:23.390Z,13.64
2023-05-14T19:31:50.718Z,13.63
2023-05-14T19:34:17.385Z,13.62
2023-05-14T19:36:43.993Z,13.58
2023-05-14T19:39:10.983Z,13.56
2023-05-14T19:41:37.962Z,13.57
2023-05-14T19:44:06.044Z,13.52
2023-05-14T19:46:33.511Z,13.51
2023-05-14T19:49:00.843Z,13.47
2023-05-14T19:51:27.664Z,13.44
2023-05-14T19:53:54.357Z,13.44
2023-05-14T19:56:21.667Z,13.37
2023-05-14T19:58:48.455Z,13.38
2023-05-14T20:01:15.202Z,13.36
2023-05-14T20:03:43.252Z,13.35
2023-05-14T20:06:10.340Z,13.27
2023-05-14T20:08:36.928Z,13.27
2023-05-14T20:11:04.001Z,13.18
2023-05-14T20:13:35.546Z,13.21
2023-05-14T20:16:02.228Z,13.17
2023-05-14T20:18:28.982Z,13.04
2023-05-14T20:20:56.047Z,13.11
2023-05-14T20:23:22.806Z,13.08
2023-05-14T20:25:49.586Z,13.11
2023-05-14T20:28:16.230Z,13.13
2023-05-14T20:30:43.084Z,12.88
2023-05-14T20:33:09.774Z,12.97
2023-05-14T20:35:36.453Z,12.97
2023-05-14T20:38:04.055Z,12.87
2023-05-14T20:40:32.843Z,12.83
2023-05-14T20:42:59.611Z,12.80
2023-05-14T20:45:26.592Z,12.68
2023-05-14T20:47:53.674Z,12.62
2023-05-14T20:50:21.590Z,12.48
2023-05-14T20:52:48.475Z,12.48
2023-05-14T20:55:15.185Z,12.43
2023-05-14T20:57:43.494Z,12.41
2023-05-14T21:00:11.076Z,12.46
2023-05-14T21:02:38.061Z,12.43
2023-05-14T21:05:05.384Z,12.34
2023-05-14T21:07:32.086Z,12.27
2023-05-14T21:09:59.108Z,12.22
2023-05-14T21:12:25.772Z,11.96
2023-05-14T21:14:52.325Z,12.29
2023-05-14T21:17:19.157Z,12.32
2023-05-14T21:19:45.976Z,12.34
2023-05-14T21:22:13.064Z,12.34
2023-05-14T21:24:39.737Z,12.34
2023-05-14T21:27:06.445Z,12.34
2023-05-14T21:29:33.109Z,12.03
2023-05-14T21:31:59.847Z,12.18
2023-05-14T21:34:26.512Z,12.25
2023-05-14T21:36:53.153Z,12.17
2023-05-14T21:39:20.053Z,12.12
2023-05-14T21:41:46.930Z,12.05
2023-05-14T21:44:13.579Z,12.07
2023-05-14T21:46:40.234Z,11.82
2023-05-14T21:49:07.060Z,11.99
2023-05-14T21:51:33.741Z,11.92
2023-05-14T21:54:00.492Z,11.88
2023-05-14T21:56:27.377Z,11.87
2023-05-14T21:58:56.107Z,11.93
2023-05-14T22:01:22.916Z,11.95
2023-05-14T22:03:49.814Z,11.96
2023-05-14T22:06:16.496Z,11.92
2023-05-14T22:08:43.083Z,11.98
2023-05-14T22:11:09.779Z,11.93
2023-05-14T22:13:40.790Z,11.92
2023-05-14T22:16:13.763Z,11.92
2023-05-14T22:18:41.101Z,11.85
2023-05-14T22:21:07.896Z,11.83
2023-05-14T22:23:34.935Z,11.84
2023-05-14T22:26:01.715Z,11.80
2023-05-14T22:28:28.412Z,11.79
2023-05-14T22:30:56.535Z,11.76
2023-05-14T22:33:23.181Z,11.75
2023-05-14T22:35:49.822Z,11.70
2023-05-14T22:38:16.479Z,11.61
2023-05-14T22:40:43.131Z,11.53
2023-05-14T22:43:09.778Z,11.51
2023-05-14T22:45:36.369Z,11.44
2023-05-14T22:48:03.050Z,11.38
2023-05-14T22:50:29.675Z,11.28
2023-05-14T22:52:56.340Z,11.18
2023-05-14T22:55:23.355Z,10.93
2023-05-14T22:57:50.150Z,10.96
2023-05-14T23:00:16.986Z,10.80
2023-05-14T23:02:43.704Z,10.75
2023-05-14T23:05:10.558Z,10.66
2023-05-14T23:07:37.482Z,10.49
2023-05-14T23:10:04.513Z,10.72
2023-05-14T23:12:31.184Z,10.61
2023-05-14T23:14:59.203Z,10.50
2023-05-14T23:17:26.041Z,10.37
2023-05-14T23:19:52.965Z,10.25
2023-05-14T23:22:19.780Z,9.90
2023-05-14T23:24:46.349Z,9.86
2023-05-14T23:27:12.961Z,9.76
2023-05-14T23:29:39.514Z,9.72
2023-05-14T23:32:06.714Z,9.61
2023-05-14T23:34:33.531Z,9.49
2023-05-14T23:37:00.377Z,9.39
2023-05-14T23:39:27.177Z,9.44
2023-05-14T23:41:53.822Z,9.32
2023-05-14T23:44:20.492Z,9.24
2023-05-14T23:46:47.158Z,9.17
2023-05-14T23:49:14.070Z,9.11
2023-05-14T23:51:40.756Z,9.17
2023-05-14T23:54:08.478Z,9.11
2023-05-14T23:56:35.613Z,9.04
2023-05-14T23:59:03.777Z,9.14
